Time;durP1;ratioP1;P1;durP2;ratioP2;P2;SDS_P1;SDS_P2;PMS_P1;PMS_P2;Temp;Humidity;BMP_temperature;BMP_pressure;BME280_temperature;BME280_humidity;BME280_pressure;Samples;Min_cycle;Max_cycle;Signal;HPM_P1;HPM_P2
2022/10/19 00:00:47;;;;;;;230.27;27.57;;;13.50;99.90;;;;;;4177820;28;20287;-68
2022/10/19 00:02:47;;;;;;;152.70;21.87;;;13.50;99.90;;;;;;4179931;28;20835;-68
2022/10/19 00:04:48;;;;;;;169.60;21.33;;;13.40;99.90;;;;;;4181520;28;20237;-67
2022/10/19 00:06:48;;;;;;;107.20;19.40;;;13.40;99.90;;;;;;4181275;28;20338;-68
2022/10/19 00:08:49;;;;;;;166.33;23.53;;;13.30;99.90;;;;;;4181386;28;20184;-68
2022/10/19 00:10:49;;;;;;;132.57;19.33;;;13.30;99.90;;;;;;4180786;28;20199;-68
2022/10/19 00:12:50;;;;;;;156.77;22.37;;;13.30;99.90;;;;;;4181246;28;20192;-67
2022/10/19 00:14:50;;;;;;;186.50;26.03;;;13.30;99.90;;;;;;4181288;28;20199;-67
2022/10/19 00:16:53;;;;;;;119.90;21.07;;;13.20;99.90;;;;;;4181284;28;20212;-68
2022/10/19 00:18:58;;;;;;;125.00;20.03;;;13.20;99.90;;;;;;4181252;28;20219;-68
2022/10/19 00:21:04;;;;;;;306.43;36.70;;;13.20;99.90;;;;;;4180557;28;20259;-68
2022/10/19 00:23:04;;;;;;;61.00;15.03;;;13.20;99.90;;;;;;4181111;28;20279;-68
2022/10/19 00:25:05;;;;;;;98.07;17.67;;;13.20;99.90;;;;;;4180998;28;20584;-68
2022/10/19 00:27:06;;;;;;;177.00;27.37;;;13.30;99.90;;;;;;4181159;28;20208;-67
2022/10/19 00:29:08;;;;;;;177.30;18.70;;;13.30;99.90;;;;;;4181167;28;20202;-68
2022/10/19 00:31:16;;;;;;;77.97;17.37;;;13.40;99.90;;;;;;4180684;28;20663;-68
2022/10/19 00:33:20;;;;;;;141.53;19.80;;;13.30;99.90;;;;;;4179571;28;20677;-67
2022/10/19 00:35:21;;;;;;;82.73;13.90;;;13.20;99.90;;;;;;4181092;28;20203;-67
2022/10/19 00:37:21;;;;;;;365.10;29.27;;;13.20;99.90;;;;;;4181470;28;20674;-68
2022/10/19 00:39:22;;;;;;;294.63;30.77;;;13.10;99.90;;;;;;4181065;28;20679;-67
2022/10/19 00:41:25;;;;;;;339.43;32.00;;;13.00;99.90;;;;;;4186581;28;20271;-67
2022/10/19 00:43:30;;;;;;;244.63;31.53;;;12.90;99.90;;;;;;4197362;28;20187;-67
2022/10/19 00:45:30;;;;;;;149.03;25.13;;;12.90;99.90;;;;;;4197456;28;20175;-68
2022/10/19 00:47:31;;;;;;;95.20;15.97;;;13.00;99.90;;;;;;4197735;28;20700;-67
2022/10/19 00:49:36;;;;;;;92.87;17.10;;;13.00;99.90;;;;;;4197229;28;20221;-67
2022/10/19 00:51:43;;;;;;;242.63;31.27;;;13.10;99.90;;;;;;4196739;28;20195;-68
2022/10/19 00:53:43;;;;;;;352.33;36.63;;;13.00;99.90;;;;;;4196183;28;20172;-68
2022/10/19 00:55:45;;;;;;;199.77;21.33;;;13.00;99.90;;;;;;4197362;28;20207;-67
2022/10/19 00:57:45;;;;;;;182.20;24.50;;;13.00;99.90;;;;;;4197199;28;20799;-68
2022/10/19 00:59:46;;;;;;;112.57;18.27;;;13.00;99.90;;;;;;4197189;28;20171;-68
2022/10/19 01:01:48;;;;;;;196.50;20.37;;;13.10;99.90;;;;;;4196440;28;20184;-68
2022/10/19 01:03:49;;;;;;;235.97;27.00;;;13.10;99.90;;;;;;4197135;28;20236;-68
2022/10/19 01:05:51;;;;;;;236.47;24.57;;;12.90;99.90;;;;;;4197292;28;20203;-67
2022/10/19 01:07:52;;;;;;;170.57;24.53;;;12.90;99.90;;;;;;4197420;28;20639;-68
2022/10/19 01:09:54;;;;;;;114.90;20.77;;;12.90;99.90;;;;;;4197115;28;20184;-68
2022/10/19 01:12:16;;;;;;;152.40;22.60;;;12.80;99.90;;;;;;4196486;28;20198;-68
2022/10/19 01:14:55;;;;;;;57.17;11.83;;;12.70;99.90;;;;;;4196174;28;20172;-68
2022/10/19 01:17:23;;;;;;;409.17;32.23;;;12.80;99.90;;;;;;4192041;28;20262;-68
2022/10/19 01:19:43;;;;;;;465.00;37.53;;;12.70;99.90;;;;;;4197032;28;20195;-68
2022/10/19 01:21:54;;;;;;;213.10;27.10;;;12.60;99.90;;;;;;4196350;28;20175;-68
2022/10/19 01:24:13;;;;;;;200.53;24.77;;;12.60;99.90;;;;;;4197022;28;20408;-68
2022/10/19 01:26:19;;;;;;;194.97;20.90;;;12.60;99.90;;;;;;4196812;28;20203;-68
2022/10/19 01:28:22;;;;;;;143.03;19.87;;;12.70;99.90;;;;;;4196899;28;20267;-68
2022/10/19 01:30:44;;;;;;;164.43;18.00;;;12.70;99.90;;;;;;4196202;28;20282;-68
2022/10/19 01:33:00;;;;;;;175.73;20.67;;;12.60;99.90;;;;;;4197024;28;20810;-68
2022/10/19 01:35:25;;;;;;;73.43;13.80;;;12.50;99.90;;;;;;4197062;28;20709;-67
2022/10/19 01:37:49;;;;;;;137.17;17.53;;;12.60;99.90;;;;;;4196143;28;20231;-67
2022/10/19 01:40:05;;;;;;;163.10;17.33;;;12.40;99.90;;;;;;4196500;28;20178;-67
2022/10/19 01:42:23;;;;;;;236.70;25.30;;;12.40;99.90;;;;;;4195985;28;20184;-67
2022/10/19 01:44:56;;;;;;;239.03;27.30;;;12.40;99.90;;;;;;4196502;28;20180;-67
2022/10/19 01:47:08;;;;;;;199.30;24.27;;;12.30;99.90;;;;;;4179565;28;20792;-68
2022/10/19 01:49:25;;;;;;;154.53;16.20;;;12.20;99.90;;;;;;4179978;28;20190;-67
2022/10/19 01:51:30;;;;;;;286.73;28.50;;;12.30;99.90;;;;;;4179174;28;20208;-67
2022/10/19 01:53:39;;;;;;;87.20;10.77;;;12.20;99.90;;;;;;4179610;28;20184;-67
2022/10/19 01:55:43;;;;;;;94.07;12.80;;;12.10;99.90;;;;;;4179969;28;20208;-67
2022/10/19 01:57:52;;;;;;;71.50;9.80;;;12.10;99.90;;;;;;4179730;28;20703;-68
2022/10/19 01:59:55;;;;;;;59.77;11.27;;;12.10;99.90;;;;;;4179519;28;20180;-67
2022/10/19 02:01:57;;;;;;;112.53;14.73;;;12.00;99.90;;;;;;4179313;28;20188;-67
2022/10/19 02:03:59;;;;;;;196.83;21.80;;;12.10;99.90;;;;;;4179542;28;20231;-68
2022/10/19 02:06:04;;;;;;;71.77;11.33;;;12.00;99.90;;;;;;4180004;28;20299;-68
2022/10/19 02:08:10;;;;;;;86.20;14.17;;;12.00;99.90;;;;;;4179608;28;20280;-67
2022/10/19 02:10:11;;;;;;;133.23;16.47;;;12.00;99.90;;;;;;4179028;28;20180;-68
2022/10/19 02:12:12;;;;;;;119.80;16.70;;;12.00;99.90;;;;;;4179590;28;20235;-68
2022/10/19 02:14:16;;;;;;;99.70;16.00;;;12.00;99.90;;;;;;4179600;28;20169;-68
2022/10/19 02:16:29;;;;;;;160.60;12.83;;;11.90;99.90;;;;;;4179573;28;20220;-67
2022/10/19 02:18:37;;;;;;;153.27;13.53;;;11.90;99.90;;;;;;4179576;28;20275;-68
2022/10/19 02:20:38;;;;;;;61.20;9.10;;;11.80;99.90;;;;;;4177677;28;20643;-68
2022/10/19 02:22:39;;;;;;;72.10;10.17;;;11.90;99.90;;;;;;4179487;28;20172;-67
2022/10/19 02:24:39;;;;;;;135.00;12.43;;;11.90;99.90;;;;;;4179444;28;20309;-68
2022/10/19 02:26:41;;;;;;;188.37;14.77;;;11.80;99.90;;;;;;4179295;28;20682;-68
2022/10/19 02:28:41;;;;;;;228.90;20.77;;;11.80;99.90;;;;;;4179551;28;20192;-68
2022/10/19 02:30:42;;;;;;;87.00;11.57;;;11.70;99.90;;;;;;4178847;28;20284;-68
2022/10/19 02:32:43;;;;;;;177.53;16.03;;;11.60;99.90;;;;;;4179252;28;20665;-68
2022/10/19 02:34:44;;;;;;;70.83;9.43;;;11.60;99.90;;;;;;4179255;28;20184;-67
2022/10/19 02:36:44;;;;;;;216.53;21.23;;;11.60;99.90;;;;;;4179303;28;20239;-68
2022/10/19 02:38:45;;;;;;;240.30;21.67;;;11.60;99.90;;;;;;4179253;28;20192;-67
2022/10/19 02:41:11;;;;;;;69.80;10.37;;;11.50;99.90;;;;;;4178614;28;20188;-68
2022/10/19 02:43:18;;;;;;;192.40;17.70;;;11.40;99.90;;;;;;4195186;28;20180;-67
2022/10/19 02:45:27;;;;;;;97.33;14.23;;;11.40;99.90;;;;;;4181616;28;20188;-67
2022/10/19 02:47:33;;;;;;;302.57;32.10;;;11.30;99.90;;;;;;4179186;28;20172;-67
2022/10/19 02:49:36;;;;;;;77.80;13.33;;;11.30;99.90;;;;;;4179106;28;20719;-68
2022/10/19 02:51:39;;;;;;;23.67;8.27;;;11.20;99.90;;;;;;4178388;28;20199;-68
2022/10/19 02:53:39;;;;;;;39.77;8.67;;;11.30;99.90;;;;;;4179162;28;20271;-67
2022/10/19 02:55:41;;;;;;;18.37;7.23;;;11.20;99.90;;;;;;4186842;28;20215;-67
2022/10/19 02:57:42;;;;;;;24.17;7.83;;;11.10;99.90;;;;;;4193654;28;20216;-67
2022/10/19 02:59:42;;;;;;;22.30;6.60;;;11.00;99.90;;;;;;4195609;28;20588;-67
2022/10/19 03:01:43;;;;;;;23.43;6.27;;;10.90;99.90;;;;;;4195100;28;20195;-68
2022/10/19 03:03:43;;;;;;;13.53;6.17;;;11.00;99.90;;;;;;4195453;28;20203;-67
2022/10/19 03:05:44;;;;;;;21.53;6.57;;;11.00;99.90;;;;;;4195182;28;20207;-67
2022/10/19 03:07:44;;;;;;;25.57;8.60;;;11.00;99.90;;;;;;4195838;28;20215;-67
2022/10/19 03:09:45;;;;;;;23.90;8.63;;;10.90;99.90;;;;;;4195582;28;20191;-68
2022/10/19 03:11:46;;;;;;;35.60;8.50;;;10.90;99.90;;;;;;4193414;28;20190;-68
2022/10/19 03:13:46;;;;;;;15.80;6.27;;;10.90;99.90;;;;;;4194976;28;20203;-67
2022/10/19 03:15:47;;;;;;;63.57;12.20;;;10.90;99.90;;;;;;4195550;28;20298;-67
2022/10/19 03:17:52;;;;;;;25.97;8.47;;;10.80;99.90;;;;;;4194377;28;20284;-68
2022/10/19 03:19:53;;;;;;;26.63;9.73;;;10.80;99.90;;;;;;4195605;28;20191;-67
2022/10/19 03:21:53;;;;;;;12.53;5.83;;;10.80;99.90;;;;;;4194778;28;20198;-67
2022/10/19 03:23:54;;;;;;;9.00;5.73;;;10.80;99.90;;;;;;4195358;28;20233;-67
2022/10/19 03:25:54;;;;;;;22.07;6.30;;;10.80;99.90;;;;;;4195259;28;20199;-67
2022/10/19 03:27:55;;;;;;;29.70;7.40;;;10.90;99.90;;;;;;4195271;28;20183;-68
2022/10/19 03:29:55;;;;;;;60.47;8.63;;;10.90;99.90;;;;;;4195285;28;20179;-68
2022/10/19 03:31:56;;;;;;;48.80;12.00;;;11.00;99.90;;;;;;4193465;28;20274;-67
2022/10/19 03:33:56;;;;;;;35.73;7.60;;;11.10;99.90;;;;;;4195361;28;20240;-68
2022/10/19 03:36:21;;;;;;;29.73;6.93;;;11.00;99.90;;;;;;4195249;28;20187;-68
2022/10/19 03:38:22;;;;;;;18.77;6.30;;;11.00;99.90;;;;;;4197954;28;20172;-67
2022/10/19 03:40:22;;;;;;;15.00;5.43;;;11.00;99.90;;;;;;4197726;28;20179;-68
2022/10/19 03:42:23;;;;;;;13.37;5.97;;;11.00;99.90;;;;;;4198441;28;20176;-67
2022/10/19 03:44:23;;;;;;;15.47;6.00;;;11.10;99.90;;;;;;4198358;28;20192;-67
2022/10/19 03:46:24;;;;;;;37.23;8.90;;;11.00;99.90;;;;;;4197095;28;20212;-68
2022/10/19 03:48:24;;;;;;;22.90;7.03;;;11.10;99.90;;;;;;4198157;28;20198;-67
2022/10/19 03:50:25;;;;;;;117.87;15.47;;;11.20;99.90;;;;;;4197430;28;20195;-67
2022/10/19 03:52:25;;;;;;;37.70;8.80;;;11.10;99.90;;;;;;4198139;28;20180;-68
2022/10/19 03:54:26;;;;;;;81.53;13.50;;;11.20;99.90;;;;;;4197995;28;20179;-68
2022/10/19 03:56:28;;;;;;;195.93;19.47;;;11.20;99.90;;;;;;4198194;28;20203;-67
2022/10/19 03:58:33;;;;;;;80.50;13.73;;;11.20;99.90;;;;;;4198102;28;20184;-68
2022/10/19 04:00:33;;;;;;;66.97;10.63;;;11.20;99.90;;;;;;4197197;28;20214;-67
2022/10/19 04:02:34;;;;;;;141.93;14.33;;;11.30;99.90;;;;;;4197795;28;20855;-68
2022/10/19 04:04:35;;;;;;;34.27;8.60;;;11.30;99.90;;;;;;4197693;28;20219;-68
2022/10/19 04:06:38;;;;;;;122.43;13.00;;;11.40;99.90;;;;;;4197892;28;20305;-68
2022/10/19 04:08:38;;;;;;;41.17;7.77;;;11.40;99.90;;;;;;4197890;28;20176;-68
2022/10/19 04:10:39;;;;;;;38.43;7.20;;;11.50;99.90;;;;;;4197273;28;20564;-67
2022/10/19 04:12:39;;;;;;;49.27;8.67;;;11.40;99.90;;;;;;4197692;28;20191;-68
2022/10/19 04:14:40;;;;;;;31.40;7.57;;;11.30;99.90;;;;;;4197891;28;20182;-68
2022/10/19 04:16:41;;;;;;;27.57;7.53;;;11.30;99.90;;;;;;4197656;28;20575;-67
2022/10/19 04:18:42;;;;;;;32.70;7.37;;;11.20;99.90;;;;;;4197781;28;20207;-68
2022/10/19 04:20:42;;;;;;;120.10;14.83;;;11.20;99.90;;;;;;4197309;28;20258;-68
2022/10/19 04:22:43;;;;;;;38.97;6.90;;;11.20;99.90;;;;;;4197931;28;20182;-67
2022/10/19 04:24:43;;;;;;;79.40;9.27;;;11.20;99.90;;;;;;4197695;28;20179;-67
2022/10/19 04:26:49;;;;;;;107.57;11.77;;;11.20;99.90;;;;;;4197669;28;20210;-67
2022/10/19 04:28:50;;;;;;;55.30;9.80;;;11.20;99.90;;;;;;4197872;28;20192;-68
2022/10/19 04:30:50;;;;;;;39.33;8.30;;;11.20;99.90;;;;;;4197048;28;20274;-68
2022/10/19 04:32:51;;;;;;;122.73;14.47;;;11.30;99.90;;;;;;4197710;28;20218;-68
2022/10/19 04:34:51;;;;;;;61.30;9.43;;;11.40;99.90;;;;;;4197646;28;20191;-68
2022/10/19 04:36:52;;;;;;;198.40;26.17;;;11.40;99.90;;;;;;4198103;28;20250;-68
2022/10/19 04:38:53;;;;;;;145.33;20.23;;;11.50;99.90;;;;;;4197609;28;20176;-67
2022/10/19 04:40:54;;;;;;;150.03;19.20;;;11.50;99.90;;;;;;4196675;28;20180;-67
2022/10/19 04:42:56;;;;;;;56.87;11.70;;;11.40;99.90;;;;;;4197462;28;20214;-67
2022/10/19 04:44:57;;;;;;;34.10;8.67;;;11.40;99.90;;;;;;4196770;28;20249;-68
2022/10/19 04:46:57;;;;;;;128.40;17.50;;;11.40;99.90;;;;;;4197411;28;20272;-68
2022/10/19 04:48:58;;;;;;;47.00;10.77;;;11.50;99.90;;;;;;4188910;28;20218;-67
2022/10/19 04:50:59;;;;;;;58.23;13.83;;;11.50;99.90;;;;;;4179785;28;20246;-68
2022/10/19 04:52:59;;;;;;;26.43;8.77;;;11.60;99.90;;;;;;4180767;28;20188;-68
2022/10/19 04:55:00;;;;;;;42.30;8.70;;;11.60;99.90;;;;;;4180475;28;20207;-68
2022/10/19 04:57:01;;;;;;;21.90;8.13;;;11.60;99.90;;;;;;4180406;28;20215;-67
2022/10/19 04:59:01;;;;;;;41.37;10.17;;;11.60;99.90;;;;;;4180534;28;20711;-68
2022/10/19 05:01:10;;;;;;;25.43;8.93;;;11.60;99.90;;;;;;4179897;28;20937;-68
2022/10/19 05:03:11;;;;;;;58.77;12.13;;;11.60;99.90;;;;;;4180137;28;20229;-68
2022/10/19 05:05:12;;;;;;;71.87;13.47;;;11.50;99.90;;;;;;4180221;28;20195;-68
2022/10/19 05:07:13;;;;;;;57.20;10.53;;;11.70;99.90;;;;;;4182805;28;20214;-67
2022/10/19 05:09:13;;;;;;;86.87;13.00;;;11.70;99.90;;;;;;4187046;28;20191;-68
2022/10/19 05:11:14;;;;;;;58.30;9.37;;;11.70;99.90;;;;;;4196153;28;20180;-68
2022/10/19 05:13:15;;;;;;;49.17;9.87;;;11.70;99.90;;;;;;4196663;28;20202;-68
2022/10/19 05:15:16;;;;;;;80.20;13.90;;;11.70;99.90;;;;;;4196710;28;20229;-67
2022/10/19 05:17:16;;;;;;;174.00;21.53;;;11.70;99.90;;;;;;4196850;28;20570;-68
2022/10/19 05:19:17;;;;;;;89.57;12.43;;;11.70;99.90;;;;;;4197145;28;20186;-68
2022/10/19 05:21:19;;;;;;;97.50;15.97;;;11.70;99.90;;;;;;4196584;28;20690;-68
2022/10/19 05:23:20;;;;;;;318.20;29.50;;;11.60;99.90;;;;;;4197044;28;20186;-68
2022/10/19 05:25:20;;;;;;;139.77;19.83;;;11.60;99.90;;;;;;4197258;28;20275;-68
2022/10/19 05:27:21;;;;;;;76.73;14.33;;;11.70;99.90;;;;;;4197035;28;20190;-67
2022/10/19 05:29:22;;;;;;;124.90;19.73;;;11.70;99.90;;;;;;4196813;28;20187;-68
2022/10/19 05:31:25;;;;;;;164.03;24.30;;;11.90;99.90;;;;;;4196129;28;20180;-68
2022/10/19 05:33:26;;;;;;;165.97;24.40;;;11.80;99.90;;;;;;4196440;28;20180;-68
2022/10/19 05:35:27;;;;;;;77.07;19.63;;;11.90;99.90;;;;;;4196397;28;20214;-68
2022/10/19 05:37:27;;;;;;;156.27;24.60;;;11.90;99.90;;;;;;4196454;28;20311;-68
2022/10/19 05:39:28;;;;;;;280.30;27.97;;;11.90;99.90;;;;;;4196380;28;20183;-68
2022/10/19 05:41:28;;;;;;;80.37;14.63;;;11.90;99.90;;;;;;4195888;28;20186;-68
2022/10/19 05:43:29;;;;;;;226.50;24.27;;;11.90;99.90;;;;;;4196490;28;20891;-68
2022/10/19 05:45:29;;;;;;;290.20;25.93;;;11.90;99.90;;;;;;4196475;28;20262;-68
2022/10/19 05:47:30;;;;;;;69.43;16.93;;;11.90;99.90;;;;;;4196410;28;20187;-68
2022/10/19 05:49:31;;;;;;;105.87;19.00;;;11.90;99.90;;;;;;4196196;28;20556;-68
2022/10/19 05:51:31;;;;;;;62.13;9.23;;;12.00;99.90;;;;;;4195770;28;20600;-68
2022/10/19 05:53:33;;;;;;;41.37;6.30;;;12.00;99.90;;;;;;4196396;28;20671;-68
2022/10/19 05:55:35;;;;;;;46.13;7.37;;;12.00;99.90;;;;;;4195956;28;20213;-68
2022/10/19 05:57:35;;;;;;;47.83;7.27;;;12.00;99.90;;;;;;4196118;28;20211;-68
2022/10/19 05:59:36;;;;;;;63.03;9.20;;;11.90;99.90;;;;;;4195668;28;20191;-68
2022/10/19 06:01:36;;;;;;;53.27;7.73;;;12.00;99.90;;;;;;4195171;28;20699;-68
2022/10/19 06:03:37;;;;;;;73.03;11.37;;;12.10;99.90;;;;;;4195967;28;20225;-68
2022/10/19 06:05:37;;;;;;;80.83;9.93;;;12.20;99.90;;;;;;4195879;28;20282;-68
2022/10/19 06:07:38;;;;;;;155.07;14.40;;;12.10;99.90;;;;;;4195991;28;20667;-68
2022/10/19 06:09:38;;;;;;;96.57;11.97;;;12.10;99.90;;;;;;4195734;28;20191;-68
2022/10/19 06:11:41;;;;;;;35.47;8.03;;;12.10;99.90;;;;;;4195154;28;20216;-68
2022/10/19 06:13:42;;;;;;;169.80;15.47;;;12.30;99.90;;;;;;4195740;28;20195;-68
2022/10/19 06:15:43;;;;;;;53.47;9.03;;;12.30;99.90;;;;;;4195862;28;20211;-67
2022/10/19 06:17:44;;;;;;;82.27;7.70;;;12.30;99.90;;;;;;4195814;28;20619;-68
2022/10/19 06:19:44;;;;;;;88.70;8.93;;;12.50;99.90;;;;;;4195668;28;20180;-68
2022/10/19 06:21:45;;;;;;;51.80;9.13;;;12.50;99.90;;;;;;4195067;28;20179;-68
2022/10/19 06:23:57;;;;;;;53.47;6.80;;;12.50;99.90;;;;;;4195647;28;20284;-68
2022/10/19 06:25:58;;;;;;;82.40;7.97;;;12.40;99.90;;;;;;4195712;28;20231;-68
2022/10/19 06:27:59;;;;;;;80.47;9.40;;;12.30;99.90;;;;;;4195554;28;20183;-68
2022/10/19 06:30:00;;;;;;;47.10;8.13;;;12.40;99.90;;;;;;4195863;28;20187;-68
2022/10/19 06:32:00;;;;;;;33.37;6.73;;;12.50;99.90;;;;;;4194763;28;20712;-68
2022/10/19 06:34:01;;;;;;;78.43;11.00;;;12.40;99.90;;;;;;4195385;28;20734;-68
2022/10/19 06:36:07;;;;;;;32.93;6.37;;;12.40;99.90;;;;;;4195186;28;20704;-68
2022/10/19 06:38:08;;;;;;;62.57;9.03;;;12.50;99.90;;;;;;4195365;28;20188;-68
2022/10/19 06:40:09;;;;;;;25.83;8.00;;;12.60;99.90;;;;;;4195114;28;20195;-68
2022/10/19 06:42:10;;;;;;;39.27;6.77;;;12.60;99.90;;;;;;4193697;28;20180;-68
2022/10/19 06:44:10;;;;;;;98.47;12.37;;;12.70;99.90;;;;;;4180940;28;20618;-68
2022/10/19 06:46:16;;;;;;;31.13;7.13;;;12.70;99.90;;;;;;4178930;28;20208;-68
2022/10/19 06:48:17;;;;;;;83.13;14.97;;;12.70;99.90;;;;;;4178859;28;20204;-68
2022/10/19 06:50:17;;;;;;;38.10;9.90;;;12.80;99.90;;;;;;4178295;28;20640;-68
2022/10/19 06:52:18;;;;;;;56.50;10.37;;;12.80;99.90;;;;;;4178790;28;20184;-68
2022/10/19 06:54:19;;;;;;;32.13;8.10;;;12.90;99.90;;;;;;4178679;28;20200;-68
2022/10/19 06:56:19;;;;;;;60.77;9.10;;;12.90;99.90;;;;;;4178823;28;20204;-68
2022/10/19 06:58:20;;;;;;;45.97;8.00;;;13.00;99.90;;;;;;4178689;28;20185;-68
2022/10/19 07:00:20;;;;;;;52.73;8.47;;;13.00;99.90;;;;;;4178056;28;20597;-68
2022/10/19 07:02:21;;;;;;;79.63;10.33;;;13.20;99.90;;;;;;4178614;28;20184;-68
2022/10/19 07:04:22;;;;;;;37.70;7.07;;;13.20;99.90;;;;;;4178635;28;20199;-68
2022/10/19 07:06:23;;;;;;;34.00;6.60;;;13.20;99.90;;;;;;4180748;28;20208;-68
2022/10/19 07:08:24;;;;;;;47.13;7.80;;;13.10;99.90;;;;;;4186699;28;20184;-68
2022/10/19 07:10:25;;;;;;;74.73;11.30;;;13.30;99.90;;;;;;4185746;28;20211;-68
2022/10/19 07:12:25;;;;;;;61.57;9.73;;;13.20;99.90;;;;;;4182577;28;20207;-68
2022/10/19 07:14:27;;;;;;;36.83;10.00;;;13.20;99.90;;;;;;4181877;28;20242;-68
2022/10/19 07:16:27;;;;;;;83.47;9.37;;;13.10;99.90;;;;;;4184747;28;20208;-68
2022/10/19 07:18:28;;;;;;;106.17;13.83;;;13.10;99.90;;;;;;4189626;28;20259;-68
2022/10/19 07:20:29;;;;;;;31.93;7.40;;;13.20;99.90;;;;;;4189095;28;20655;-68
2022/10/19 07:22:29;;;;;;;74.00;11.23;;;13.10;99.90;;;;;;4189905;28;20172;-68
2022/10/19 07:24:30;;;;;;;69.83;9.40;;;13.10;99.90;;;;;;4189808;28;20187;-68
2022/10/19 07:26:32;;;;;;;65.77;10.83;;;13.00;99.90;;;;;;4189858;28;20211;-68
2022/10/19 07:28:34;;;;;;;51.03;10.33;;;13.10;99.90;;;;;;4190007;28;20212;-68
2022/10/19 07:30:37;;;;;;;48.57;8.13;;;13.10;99.90;;;;;;4189097;28;20689;-68
2022/10/19 07:32:37;;;;;;;58.50;10.57;;;12.90;99.90;;;;;;4189684;28;20184;-68
2022/10/19 07:34:38;;;;;;;71.97;11.07;;;13.00;99.90;;;;;;4198341;28;20180;-68
2022/10/19 07:36:43;;;;;;;87.73;15.00;;;13.00;99.90;;;;;;4198096;28;20694;-68
2022/10/19 07:38:44;;;;;;;41.70;9.73;;;13.10;99.90;;;;;;4198243;28;20183;-68
2022/10/19 07:40:44;;;;;;;29.63;8.13;;;13.20;99.90;;;;;;4198183;28;20187;-69
2022/10/19 07:42:45;;;;;;;30.30;9.40;;;13.10;99.90;;;;;;4199679;28;20191;-68
2022/10/19 07:44:45;;;;;;;48.27;9.10;;;13.40;99.90;;;;;;4199691;28;20634;-69
2022/10/19 07:46:46;;;;;;;57.13;11.20;;;13.30;99.90;;;;;;4199259;28;20200;-68
2022/10/19 07:48:47;;;;;;;86.83;15.30;;;13.20;99.90;;;;;;4199212;28;20263;-68
2022/10/19 07:50:48;;;;;;;20.10;8.43;;;13.20;99.90;;;;;;4199709;28;20191;-68
2022/10/19 07:52:50;;;;;;;39.83;9.43;;;13.40;99.90;;;;;;4201031;28;20251;-68
2022/10/19 07:54:51;;;;;;;23.00;7.93;;;13.40;99.90;;;;;;4199342;28;20184;-68
2022/10/19 07:56:52;;;;;;;34.80;8.23;;;13.60;99.90;;;;;;4187849;28;20613;-68
2022/10/19 07:58:55;;;;;;;43.40;11.77;;;13.80;99.90;;;;;;4181484;28;20237;-68
2022/10/19 08:01:20;;;;;;;62.20;11.00;;;13.80;99.90;;;;;;4186594;28;20185;-68
2022/10/19 08:03:20;;;;;;;48.97;10.27;;;13.70;99.90;;;;;;4190133;28;20188;-68
2022/10/19 08:05:21;;;;;;;51.00;10.40;;;13.40;99.90;;;;;;4197522;28;20209;-65
2022/10/19 08:07:21;;;;;;;22.70;9.00;;;13.40;99.90;;;;;;4198079;28;20180;-65
2022/10/19 08:09:22;;;;;;;40.23;11.63;;;13.60;99.90;;;;;;4197715;28;20179;-66
2022/10/19 08:11:24;;;;;;;45.30;10.30;;;13.50;99.90;;;;;;4197353;28;20181;-68
2022/10/19 08:13:24;;;;;;;31.00;10.37;;;13.40;99.90;;;;;;4197554;28;20200;-68
2022/10/19 08:15:25;;;;;;;38.00;10.17;;;13.60;99.90;;;;;;4197603;28;20727;-68
2022/10/19 08:17:25;;;;;;;57.37;11.37;;;13.70;99.90;;;;;;4198068;28;20667;-68
2022/10/19 08:19:26;;;;;;;32.93;9.43;;;13.70;99.90;;;;;;4196533;28;20344;-68
2022/10/19 08:21:29;;;;;;;42.57;9.83;;;13.80;99.90;;;;;;4197112;28;20190;-68
2022/10/19 08:23:29;;;;;;;44.33;11.53;;;14.00;99.90;;;;;;4197587;28;20186;-68
2022/10/19 08:25:30;;;;;;;35.60;9.80;;;13.90;99.90;;;;;;4197647;28;20175;-68
2022/10/19 08:27:31;;;;;;;34.63;10.90;;;13.80;99.90;;;;;;4197694;28;20874;-68
2022/10/19 08:29:31;;;;;;;32.77;9.17;;;13.70;99.90;;;;;;4197492;28;20180;-68
2022/10/19 08:31:32;;;;;;;54.83;9.60;;;13.50;99.90;;;;;;4196846;28;20526;-68
2022/10/19 08:33:32;;;;;;;26.30;11.13;;;13.70;99.90;;;;;;4197633;28;20621;-68
2022/10/19 08:35:34;;;;;;;29.77;9.30;;;13.60;99.90;;;;;;4196049;28;20654;-68
2022/10/19 08:37:34;;;;;;;28.60;8.93;;;13.90;99.90;;;;;;4197401;28;20215;-68
2022/10/19 08:39:35;;;;;;;20.17;9.73;;;13.90;99.90;;;;;;4187106;28;20183;-68
2022/10/19 08:41:38;;;;;;;44.83;12.23;;;13.90;99.90;;;;;;4179996;28;20188;-68
2022/10/19 08:44:03;;;;;;;25.47;9.40;;;14.00;99.90;;;;;;4180697;28;20180;-68
2022/10/19 08:46:13;;;;;;;13.90;8.20;;;14.00;99.90;;;;;;4195849;28;20196;-68
2022/10/19 08:48:35;;;;;;;29.57;11.80;;;14.20;99.90;;;;;;4197194;28;20581;-68
2022/10/19 08:50:42;;;;;;;15.80;9.37;;;13.90;99.90;;;;;;4196492;28;20168;-68
2022/10/19 08:52:46;;;;;;;20.07;8.63;;;14.40;99.90;;;;;;4196875;28;20184;-68
2022/10/19 08:54:55;;;;;;;14.80;8.23;;;14.50;99.90;;;;;;4197187;28;20188;-68
2022/10/19 08:57:11;;;;;;;12.43;7.53;;;14.10;99.90;;;;;;4197074;28;20581;-68
2022/10/19 08:59:33;;;;;;;14.10;8.00;;;13.90;99.90;;;;;;4197054;28;20164;-68
2022/10/19 09:01:33;;;;;;;13.73;8.50;;;14.20;99.90;;;;;;4196429;28;20611;-68
2022/10/19 09:03:38;;;;;;;13.70;7.90;;;14.10;99.90;;;;;;4196775;28;20191;-68
2022/10/19 09:05:59;;;;;;;15.17;8.57;;;14.40;99.90;;;;;;4196969;28;20199;-68
2022/10/19 09:08:00;;;;;;;11.07;7.80;;;14.80;99.90;;;;;;4197014;28;20159;-68
2022/10/19 09:10:09;;;;;;;12.93;8.87;;;14.80;99.90;;;;;;4196667;28;20176;-68
2022/10/19 09:12:17;;;;;;;12.17;8.20;;;15.20;99.90;;;;;;4196450;28;20207;-68
2022/10/19 09:14:31;;;;;;;11.13;7.33;;;15.30;99.90;;;;;;4195488;28;20178;-68
2022/10/19 09:16:33;;;;;;;13.47;8.10;;;15.10;99.90;;;;;;4195249;28;20235;-68
2022/10/19 09:18:34;;;;;;;12.17;7.47;;;15.10;99.90;;;;;;4195329;28;20740;-68
2022/10/19 09:20:40;;;;;;;19.57;9.07;;;15.20;99.90;;;;;;4195876;28;20180;-68
2022/10/19 09:22:43;;;;;;;10.77;7.63;;;15.10;99.90;;;;;;4195307;28;20166;-68
2022/10/19 09:24:50;;;;;;;11.23;7.83;;;15.30;99.90;;;;;;4196386;28;20179;-68
2022/10/19 09:26:56;;;;;;;11.77;7.33;;;14.80;99.90;;;;;;4196369;28;20198;-68
2022/10/19 09:29:23;;;;;;;13.47;8.43;;;14.60;99.90;;;;;;4195263;28;20156;-68
2022/10/19 09:31:32;;;;;;;10.93;6.83;;;14.80;99.90;;;;;;4194358;28;20195;-68
2022/10/19 09:33:36;;;;;;;12.00;7.10;;;14.70;99.90;;;;;;4196555;28;20605;-68
2022/10/19 09:35:41;;;;;;;11.10;7.37;;;14.60;99.90;;;;;;4195561;28;20726;-68
2022/10/19 09:37:47;;;;;;;10.60;7.20;;;14.80;99.90;;;;;;4196291;28;20211;-68
2022/10/19 09:39:48;;;;;;;12.03;6.60;;;14.80;99.90;;;;;;4195112;28;20531;-68
2022/10/19 09:41:53;;;;;;;9.57;6.57;;;15.30;99.90;;;;;;4195592;28;20175;-68
2022/10/19 09:43:55;;;;;;;10.00;6.27;;;15.90;99.90;;;;;;4195207;28;20176;-67
2022/10/19 09:46:01;;;;;;;11.97;7.60;;;16.10;99.90;;;;;;4195062;28;20248;-68
2022/10/19 09:48:13;;;;;;;8.17;6.07;;;15.70;99.90;;;;;;4194878;28;20160;-68
2022/10/19 09:50:25;;;;;;;12.10;6.80;;;15.70;99.90;;;;;;4195655;28;20703;-67
2022/10/19 09:52:38;;;;;;;9.97;7.20;;;15.50;99.90;;;;;;4194879;28;20252;-67
2022/10/19 09:54:39;;;;;;;10.07;6.43;;;16.00;99.90;;;;;;4194845;28;20194;-68
2022/10/19 09:56:53;;;;;;;7.33;5.13;;;16.60;99.90;;;;;;4194841;28;20574;-68
2022/10/19 09:58:56;;;;;;;7.03;5.10;;;16.90;99.80;;;;;;4194929;28;20252;-68
2022/10/19 10:00:58;;;;;;;9.37;5.87;;;16.60;99.00;;;;;;4194397;28;20175;-67
2022/10/19 10:02:58;;;;;;;8.33;5.53;;;16.20;99.90;;;;;;4195931;28;20187;-68
2022/10/19 10:05:13;;;;;;;7.53;5.60;;;16.00;99.90;;;;;;4194922;28;20183;-67
2022/10/19 10:07:17;;;;;;;8.53;5.97;;;16.00;99.90;;;;;;4194819;28;20286;-68
2022/10/19 10:09:26;;;;;;;9.93;6.83;;;15.90;99.90;;;;;;4194894;28;20175;-67
2022/10/19 10:11:35;;;;;;;10.20;6.77;;;15.70;99.90;;;;;;4194057;28;20233;-68
2022/10/19 10:13:42;;;;;;;7.23;5.77;;;16.10;99.90;;;;;;4195914;28;20195;-68
2022/10/19 10:15:47;;;;;;;7.60;5.87;;;17.00;99.90;;;;;;4194617;28;20203;-67
2022/10/19 10:17:49;;;;;;;9.67;5.87;;;17.60;97.90;;;;;;4194577;28;20187;-68
2022/10/19 10:19:59;;;;;;;7.03;4.90;;;17.30;96.80;;;;;;4195739;28;20189;-67
2022/10/19 10:22:03;;;;;;;5.87;4.47;;;17.00;99.00;;;;;;4195271;28;20182;-68
2022/10/19 10:24:16;;;;;;;6.57;4.80;;;18.20;96.40;;;;;;4194398;28;20187;-67
2022/10/19 10:26:18;;;;;;;5.77;4.80;;;18.20;94.70;;;;;;4196096;28;20286;-68
2022/10/19 10:28:23;;;;;;;7.43;5.20;;;17.80;94.10;;;;;;4195740;28;20179;-67
2022/10/19 10:30:26;;;;;;;6.10;4.60;;;17.10;96.80;;;;;;4194824;28;20384;-67